createdAt,value
2022-10-03T00:00:14.240Z,90.62
2022-10-03T00:02:40.558Z,90.17
2022-10-03T00:05:28.656Z,90.12
2022-10-03T00:08:04.945Z,90.30
2022-10-03T00:10:49.670Z,90.17
2022-10-03T00:13:30.632Z,90.49
2022-10-03T00:16:13.374Z,90.49
2022-10-03T00:18:57.320Z,90.68
2022-10-03T00:21:52.940Z,90.90
2022-10-03T00:24:31.684Z,91.08
2022-10-03T00:27:00.910Z,91.28
2022-10-03T00:29:39.465Z,90.99
2022-10-03T00:35:23.332Z,91.01
2022-10-03T00:38:27.405Z,91.40
2022-10-03T00:41:20.154Z,91.71
2022-10-03T00:44:20.520Z,91.92
2022-10-03T00:47:11.105Z,92.17
2022-10-03T00:50:07.228Z,92.49
2022-10-03T00:52:45.510Z,92.47
2022-10-03T00:55:34.425Z,92.60
2022-10-03T00:58:23.481Z,92.48
2022-10-03T01:00:51.548Z,92.38
2022-10-03T01:03:34.651Z,92.51
2022-10-03T01:06:06.913Z,92.81
2022-10-03T01:11:55.112Z,93.18
2022-10-03T01:14:32.871Z,93.36
2022-10-03T01:17:18.418Z,93.53
2022-10-03T01:20:03.575Z,93.75
2022-10-03T01:23:01.065Z,93.89
2022-10-03T01:25:56.384Z,94.07
2022-10-03T01:28:59.886Z,94.21
2022-10-03T01:31:53.122Z,94.13
2022-10-03T01:34:37.273Z,93.71
2022-10-03T01:37:27.869Z,93.57
2022-10-03T01:40:07.614Z,93.77
2022-10-03T01:42:41.555Z,93.82
2022-10-03T01:45:20.908Z,94.33
2022-10-03T01:50:34.775Z,94.54
2022-10-03T01:53:14.810Z,95.03
2022-10-03T01:56:06.409Z,95.30
2022-10-03T01:58:57.546Z,95.46
2022-10-03T02:01:26.848Z,95.21
2022-10-03T02:04:31.571Z,95.45
2022-10-03T02:07:29.653Z,95.40
2022-10-03T02:10:19.199Z,95.25
2022-10-03T02:12:58.621Z,95.46
2022-10-03T02:15:57.172Z,95.46
2022-10-03T02:18:50.381Z,95.30
2022-10-03T02:24:17.504Z,95.12
2022-10-03T02:27:06.938Z,95.18
2022-10-03T02:29:42.308Z,95.24
2022-10-03T02:32:27.404Z,95.16
2022-10-03T02:35:12.495Z,95.06
2022-10-03T02:38:00.649Z,95.01
2022-10-03T02:40:41.654Z,95.00
2022-10-03T02:43:35.924Z,94.76
2022-10-03T02:46:39.987Z,94.55
2022-10-03T02:49:36.962Z,94.39
2022-10-03T02:52:24.445Z,94.44
2022-10-03T02:54:58.849Z,94.49
2022-10-03T02:57:36.026Z,94.36
2022-10-03T03:00:06.838Z,94.43
2022-10-03T03:03:01.217Z,94.49
2022-10-03T03:05:58.502Z,94.42
2022-10-03T03:08:43.305Z,94.37
2022-10-03T03:11:48.509Z,94.54
2022-10-03T03:14:18.676Z,94.48
2022-10-03T03:17:11.749Z,94.37
2022-10-03T03:20:07.422Z,94.50
2022-10-03T03:22:36.588Z,94.54
2022-10-03T03:25:19.146Z,94.61
2022-10-03T03:28:19.423Z,94.61
2022-10-03T03:30:54.381Z,94.71
2022-10-03T03:33:42.161Z,94.80
2022-10-03T03:36:20.937Z,94.92
2022-10-03T03:38:57.978Z,94.96
2022-10-03T03:41:36.304Z,94.98
2022-10-03T03:44:20.373Z,94.99
2022-10-03T03:47:13.788Z,94.93
2022-10-03T03:49:59.085Z,94.83
2022-10-03T03:55:59.815Z,94.90
2022-10-03T03:59:01.096Z,95.01
2022-10-03T04:01:49.418Z,94.95
2022-10-03T04:04:58.066Z,95.09
2022-10-03T04:07:55.506Z,95.11
2022-10-03T04:10:42.474Z,95.25
2022-10-03T04:16:11.540Z,95.28
2022-10-03T04:18:59.027Z,95.39
2022-10-03T04:24:13.310Z,95.57
2022-10-03T04:27:01.944Z,95.59
2022-10-03T04:29:42.583Z,95.67
2022-10-03T04:32:34.739Z,95.76
2022-10-03T04:35:20.586Z,95.98
2022-10-03T04:37:59.100Z,96.03
2022-10-03T04:40:54.405Z,95.99
2022-10-03T04:44:00.231Z,96.09
2022-10-03T04:46:35.465Z,96.35
2022-10-03T04:49:26.653Z,96.24
2022-10-03T04:52:06.672Z,96.31
2022-10-03T04:57:36.718Z,96.64
2022-10-03T05:00:51.887Z,96.38
2022-10-03T05:04:00.769Z,96.52
2022-10-03T05:06:36.451Z,96.51
2022-10-03T05:09:32.631Z,96.38
2022-10-03T05:12:03.654Z,96.50
2022-10-03T05:15:14.684Z,96.51
2022-10-03T05:20:23.850Z,96.45
2022-10-03T05:23:19.163Z,96.55
2022-10-03T05:26:17.674Z,96.39
2022-10-03T05:29:03.565Z,96.42
2022-10-03T05:32:07.226Z,96.26
2022-10-03T05:35:12.173Z,96.35
2022-10-03T05:38:12.667Z,96.14
2022-10-03T05:40:43.694Z,96.23
2022-10-03T05:43:48.134Z,96.21
2022-10-03T05:46:38.593Z,95.99
2022-10-03T05:49:42.895Z,96.03
2022-10-03T05:55:13.393Z,96.20
2022-10-03T06:00:20.579Z,96.39
2022-10-03T06:10:50.712Z,96.70
2022-10-03T06:13:51.745Z,96.88
2022-10-03T06:16:31.778Z,96.94
2022-10-03T06:19:07.176Z,96.88
2022-10-03T06:24:18.365Z,97.15
2022-10-03T06:29:38.999Z,97.35
2022-10-03T06:34:56.297Z,97.33
2022-10-03T06:37:57.565Z,97.78
2022-10-03T06:40:42.047Z,97.91
2022-10-03T06:43:39.411Z,97.82
2022-10-03T06:46:47.239Z,97.74
2022-10-03T06:49:22.295Z,97.75
2022-10-03T06:52:00.393Z,97.85
2022-10-03T06:55:05.526Z,98.06
2022-10-03T06:57:45.630Z,98.04
2022-10-03T07:00:18.609Z,98.21
2022-10-03T07:03:31.301Z,98.06
2022-10-03T07:06:09.889Z,98.02
2022-10-03T07:09:10.497Z,98.09
2022-10-03T07:12:14.470Z,98.31
2022-10-03T07:14:48.075Z,98.64
2022-10-03T07:17:45.260Z,98.65
2022-10-03T07:20:29.920Z,98.59
2022-10-03T07:23:21.279Z,98.62
2022-10-03T07:26:13.608Z,98.55
2022-10-03T07:29:17.049Z,98.60
2022-10-03T07:32:07.242Z,98.67
2022-10-03T07:35:01.407Z,98.48
2022-10-03T07:38:14.548Z,98.42
2022-10-03T07:40:59.363Z,98.62
2022-10-03T07:43:50.013Z,98.36
2022-10-03T07:46:41.438Z,98.07
2022-10-03T07:49:44.828Z,97.69
2022-10-03T07:55:18.425Z,97.37
2022-10-03T07:58:06.148Z,97.15
2022-10-03T08:03:51.498Z,97.11
2022-10-03T08:06:24.546Z,96.67
2022-10-03T08:09:19.951Z,96.83
2022-10-03T08:12:14.745Z,96.49
2022-10-03T08:14:50.439Z,95.66
2022-10-03T08:20:11.059Z,95.00
2022-10-03T08:22:53.859Z,95.04
2022-10-03T08:25:53.470Z,94.45
2022-10-03T08:28:22.855Z,94.10
2022-10-03T08:31:14.508Z,94.47
2022-10-03T08:34:11.875Z,94.04
2022-10-03T08:36:56.604Z,94.13
2022-10-03T08:39:35.167Z,93.64
2022-10-03T08:48:02.631Z,93.01
2022-10-03T08:53:47.669Z,92.88
2022-10-03T08:59:08.058Z,92.41
2022-10-03T09:01:51.651Z,91.92
2022-10-03T09:04:39.327Z,91.75
2022-10-03T09:07:21.538Z,91.67
2022-10-03T09:10:09.869Z,91.03
2022-10-03T09:18:26.637Z,89.96
2022-10-03T09:21:24.528Z,89.77
2022-10-03T09:23:57.447Z,88.90
2022-10-03T09:27:01.355Z,88.96
2022-10-03T09:30:04.484Z,88.71
2022-10-03T09:32:57.607Z,87.55
2022-10-03T09:35:48.623Z,87.18
2022-10-03T09:38:39.349Z,87.50
2022-10-03T09:47:13.020Z,85.63
2022-10-03T09:49:58.736Z,83.94
2022-10-03T09:55:40.592Z,83.97
2022-10-03T09:58:18.896Z,84.01
2022-10-03T10:03:45.411Z,83.25
2022-10-03T10:06:36.668Z,82.74
2022-10-03T10:09:09.260Z,81.68
2022-10-03T10:12:01.462Z,82.04
2022-10-03T10:15:07.857Z,82.64
2022-10-03T10:20:22.089Z,81.50
2022-10-03T10:25:58.813Z,81.44
2022-10-03T10:31:45.032Z,79.11
2022-10-03T10:34:43.229Z,80.11
2022-10-03T10:40:07.209Z,79.36
2022-10-03T10:45:45.530Z,76.89
2022-10-03T10:48:18.060Z,76.27
2022-10-03T10:59:25.165Z,76.35
2022-10-03T11:02:20.058Z,75.15
2022-10-03T11:10:28.517Z,73.94
2022-10-03T11:21:25.797Z,76.83
2022-10-03T11:24:07.340Z,73.14
2022-10-03T11:27:07.763Z,73.50
2022-10-03T11:29:49.277Z,72.07
2022-10-03T11:32:33.862Z,72.80
2022-10-03T11:40:36.292Z,71.41
2022-10-03T11:58:34.935Z,72.17
2022-10-03T12:01:28.852Z,71.33
2022-10-03T12:04:11.460Z,70.23
2022-10-03T12:07:05.713Z,71.34
2022-10-03T12:10:08.806Z,72.07
2022-10-03T12:17:50.758Z,71.11
2022-10-03T12:23:38.487Z,73.29
2022-10-03T12:26:10.903Z,72.61
2022-10-03T12:28:44.197Z,72.83
2022-10-03T12:31:20.835Z,72.83
2022-10-03T12:34:24.524Z,71.40
2022-10-03T12:39:48.117Z,71.73
2022-10-03T12:42:53.383Z,72.55
2022-10-03T12:45:45.909Z,74.04
2022-10-03T12:48:48.383Z,72.66
2022-10-03T12:51:43.674Z,73.35
2022-10-03T12:54:35.049Z,72.20
2022-10-03T13:00:12.092Z,74.62
2022-10-03T13:02:58.142Z,73.49
2022-10-03T13:08:01.585Z,73.59
2022-10-03T13:16:21.032Z,75.54
2022-10-03T13:18:51.591Z,73.62
2022-10-03T13:22:03.317Z,71.23
2022-10-03T13:27:33.948Z,71.59
2022-10-03T13:30:13.772Z,73.61
2022-10-03T13:32:49.194Z,70.32
2022-10-03T13:35:56.105Z,69.30
2022-10-03T13:39:13.648Z,70.22
2022-10-03T13:44:22.333Z,68.42
2022-10-03T13:49:36.553Z,68.78
2022-10-03T13:55:18.547Z,68.75
2022-10-03T13:57:56.647Z,67.20
2022-10-03T14:00:26.177Z,68.16
2022-10-03T14:05:56.525Z,68.84
2022-10-03T14:08:42.306Z,70.35
2022-10-03T14:11:26.820Z,69.38
2022-10-03T14:16:34.789Z,69.91
2022-10-03T14:19:21.383Z,70.38
2022-10-03T14:22:22.605Z,70.71
2022-10-03T14:25:03.568Z,71.18
2022-10-03T14:27:57.258Z,70.68
2022-10-03T14:30:35.776Z,69.70
2022-10-03T14:33:23.579Z,70.82
2022-10-03T14:39:00.053Z,70.39
2022-10-03T14:46:48.967Z,67.06
2022-10-03T14:49:52.638Z,67.91
2022-10-03T14:52:46.923Z,67.74
2022-10-03T14:55:18.543Z,66.15
2022-10-03T14:58:10.329Z,67.59
2022-10-03T15:05:54.580Z,66.66
2022-10-03T15:10:50.377Z,67.59
2022-10-03T15:13:20.235Z,68.49
2022-10-03T15:15:48.569Z,68.86
2022-10-03T15:18:17.912Z,68.21
2022-10-03T15:20:45.867Z,68.46
2022-10-03T15:23:21.665Z,68.16
2022-10-03T15:25:53.023Z,67.32
2022-10-03T15:28:26.486Z,66.38
2022-10-03T15:33:35.080Z,66.57
2022-10-03T15:36:10.697Z,67.26
2022-10-03T15:38:42.250Z,66.67
2022-10-03T15:43:53.176Z,67.42
2022-10-03T15:51:38.552Z,67.58
2022-10-03T15:54:09.075Z,67.95
2022-10-03T15:56:42.128Z,68.18
2022-10-03T15:59:17.161Z,69.00
2022-10-03T16:01:50.673Z,69.37
2022-10-03T16:06:55.028Z,68.10
2022-10-03T16:09:49.425Z,68.65
2022-10-03T16:12:52.968Z,69.56
2022-10-03T16:18:01.520Z,70.21
2022-10-03T16:20:34.745Z,70.79
2022-10-03T16:23:34.321Z,72.00
2022-10-03T16:26:05.849Z,73.27
2022-10-03T16:29:00.659Z,73.23
2022-10-03T16:31:34.871Z,73.29
2022-10-03T16:34:14.010Z,72.31
2022-10-03T16:39:21.124Z,71.71
2022-10-03T16:41:52.146Z,71.60
2022-10-03T16:44:38.400Z,71.49
2022-10-03T16:52:42.056Z,71.82
2022-10-03T16:55:18.092Z,72.54
2022-10-03T16:58:03.375Z,73.82
2022-10-03T17:11:04.702Z,76.94
2022-10-03T17:19:25.233Z,77.92
2022-10-03T17:21:54.656Z,78.20
2022-10-03T17:26:55.505Z,78.37
2022-10-03T17:29:33.578Z,78.47
2022-10-03T17:32:14.442Z,78.64
2022-10-03T17:37:28.442Z,78.68
2022-10-03T17:42:46.052Z,78.96
2022-10-03T17:45:33.480Z,78.97
2022-10-03T17:48:10.373Z,79.09
2022-10-03T17:50:56.034Z,79.24
2022-10-03T17:53:28.945Z,79.61
2022-10-03T17:55:59.847Z,80.00
2022-10-03T18:03:37.454Z,80.56
2022-10-03T18:06:31.833Z,80.60
2022-10-03T18:11:31.017Z,81.14
2022-10-03T18:14:35.956Z,81.39
2022-10-03T18:17:22.935Z,81.63
2022-10-03T18:20:30.977Z,82.08
2022-10-03T18:29:03.432Z,82.93
2022-10-03T18:34:19.580Z,83.10
2022-10-03T18:39:26.838Z,83.57
2022-10-03T18:41:58.558Z,83.67
2022-10-03T18:44:29.770Z,84.02
2022-10-03T18:47:11.356Z,84.15
2022-10-03T18:52:19.543Z,85.01
2022-10-03T18:54:45.806Z,85.23
2022-10-03T18:57:30.879Z,85.46
2022-10-03T19:02:59.129Z,85.77
2022-10-03T19:08:26.678Z,86.12
2022-10-03T19:11:17.578Z,86.36
2022-10-03T19:19:17.217Z,86.94
2022-10-03T19:21:44.383Z,87.17
2022-10-03T19:24:17.503Z,87.21
2022-10-03T19:34:31.713Z,87.93
2022-10-03T19:36:59.954Z,88.08
2022-10-03T19:44:25.259Z,88.01
2022-10-03T19:49:50.694Z,88.28
2022-10-03T19:52:19.207Z,88.36
2022-10-03T19:55:00.208Z,88.48
2022-10-03T19:57:52.885Z,88.58
2022-10-03T20:02:53.158Z,88.63
2022-10-03T20:05:24.417Z,88.84
2022-10-03T20:08:07.488Z,88.90
2022-10-03T20:11:05.284Z,88.95
2022-10-03T20:13:31.806Z,88.69
2022-10-03T20:15:58.759Z,88.76
2022-10-03T20:18:31.434Z,88.84
2022-10-03T20:20:59.267Z,89.20
2022-10-03T20:23:29.392Z,89.60
2022-10-03T20:29:12.271Z,89.99
2022-10-03T20:39:28.209Z,90.17
2022-10-03T20:42:02.020Z,90.12
2022-10-03T20:44:44.013Z,90.13
2022-10-03T20:47:30.579Z,90.14
2022-10-03T20:50:18.477Z,90.17
2022-10-03T20:55:30.463Z,90.08
2022-10-03T20:58:05.988Z,89.79
2022-10-03T21:00:40.393Z,89.96
2022-10-03T21:03:34.934Z,89.92
2022-10-03T21:06:10.603Z,89.88
2022-10-03T21:08:41.647Z,90.13
2022-10-03T21:13:53.517Z,90.31
2022-10-03T21:16:21.399Z,90.33
2022-10-03T21:18:51.064Z,90.52
2022-10-03T21:21:20.090Z,90.49
2022-10-03T21:23:54.105Z,90.54
2022-10-03T21:26:23.661Z,90.47
2022-10-03T21:28:49.971Z,90.63
2022-10-03T21:31:28.950Z,90.58
2022-10-03T21:34:06.088Z,90.81
2022-10-03T21:37:01.822Z,91.08
2022-10-03T21:42:07.810Z,91.05
2022-10-03T21:45:07.268Z,91.21
2022-10-03T21:47:44.403Z,91.49
2022-10-03T21:50:24.488Z,91.60
2022-10-03T21:55:51.782Z,91.89
2022-10-03T21:58:27.510Z,91.97
2022-10-03T22:01:13.021Z,92.07
2022-10-03T22:03:58.845Z,92.16
2022-10-03T22:06:29.964Z,92.24
2022-10-03T22:14:15.844Z,92.20
2022-10-03T22:16:56.477Z,92.16
2022-10-03T22:22:24.672Z,92.47
2022-10-03T22:25:14.735Z,92.48
2022-10-03T22:27:56.646Z,92.71
2022-10-03T22:30:23.466Z,92.67
2022-10-03T22:33:02.133Z,92.49
2022-10-03T22:35:31.383Z,92.78
2022-10-03T22:37:57.809Z,92.68
2022-10-03T22:45:24.265Z,92.63
2022-10-03T22:47:57.310Z,92.75
2022-10-03T22:50:29.093Z,92.85
2022-10-03T22:52:57.925Z,93.02
2022-10-03T22:55:26.621Z,93.09
2022-10-03T23:00:27.666Z,93.11
2022-10-03T23:05:47.506Z,93.13
2022-10-03T23:08:16.895Z,93.26
2022-10-03T23:13:43.613Z,93.39
2022-10-03T23:16:19.068Z,93.48
2022-10-03T23:19:07.200Z,93.64
2022-10-03T23:21:34.404Z,93.70
2022-10-03T23:24:15.917Z,93.83
2022-10-03T23:27:12.542Z,93.95
2022-10-03T23:29:38.864Z,94.09
2022-10-03T23:32:07.063Z,94.10
2022-10-03T23:34:36.221Z,94.15
2022-10-03T23:37:13.005Z,94.26
2022-10-03T23:39:55.724Z,94.11
2022-10-03T23:42:31.167Z,94.34
2022-10-03T23:44:59.988Z,94.27
2022-10-03T23:47:30.017Z,94.31
2022-10-03T23:52:31.259Z,94.39
2022-10-03T23:55:03.983Z,94.61
2022-10-03T23:57:35.591Z,94.74
